Time;durP1;ratioP1;P1;durP2;ratioP2;P2;SDS_P1;SDS_P2;PMS_P1;PMS_P2;Temp;Humidity;BMP_temperature;BMP_pressure;BME280_temperature;BME280_humidity;BME280_pressure;Samples;Min_cycle;Max_cycle;Signal;HPM_P1;HPM_P2
2022/12/19 00:02:23;;;;;;;156.90;146.93;;;-0.10;99.90;;;;;;5055946;28;20478;-82
2022/12/19 00:04:49;;;;;;;171.20;161.05;;;-0.10;99.90;;;;;;5056259;28;20596;-82
2022/12/19 00:07:17;;;;;;;173.05;162.13;;;0.00;99.90;;;;;;5056698;28;20212;-82
2022/12/19 00:09:44;;;;;;;174.65;164.23;;;0.00;99.90;;;;;;5056425;28;20200;-82
2022/12/19 00:12:11;;;;;;;160.73;151.37;;;0.00;99.90;;;;;;5055644;28;20221;-82
2022/12/19 00:14:37;;;;;;;203.63;191.77;;;0.10;99.90;;;;;;5056407;28;20456;-82
2022/12/19 00:17:04;;;;;;;211.33;198.83;;;0.00;99.90;;;;;;5055820;28;21026;-82
2022/12/19 00:19:31;;;;;;;215.43;203.00;;;0.10;99.90;;;;;;5055613;28;20542;-82
2022/12/19 00:21:58;;;;;;;198.93;187.30;;;0.20;99.90;;;;;;5055517;28;20486;-82
2022/12/19 00:24:26;;;;;;;194.20;182.60;;;0.20;99.90;;;;;;5056289;28;20462;-81
2022/12/19 00:26:52;;;;;;;215.73;201.67;;;0.00;99.90;;;;;;5056256;28;20455;-82
2022/12/19 00:29:19;;;;;;;193.87;181.57;;;0.10;99.90;;;;;;5055511;28;20462;-82
2022/12/19 00:31:46;;;;;;;181.40;168.80;;;0.10;99.90;;;;;;5055268;28;20869;-82
2022/12/19 00:34:12;;;;;;;179.23;168.47;;;0.20;99.90;;;;;;5055793;28;20459;-82
2022/12/19 00:36:39;;;;;;;181.30;170.47;;;0.20;99.90;;;;;;5055633;28;20482;-82
2022/12/19 00:39:06;;;;;;;197.30;186.20;;;0.20;99.90;;;;;;5056092;28;20462;-82
2022/12/19 00:41:36;;;;;;;185.73;174.23;;;0.20;99.90;;;;;;5054977;28;20486;-81
2022/12/19 00:44:05;;;;;;;183.20;173.20;;;0.10;99.90;;;;;;5055616;28;20452;-82
2022/12/19 00:46:33;;;;;;;202.10;190.57;;;0.30;99.90;;;;;;5055722;28;20454;-82
2022/12/19 00:49:00;;;;;;;210.83;199.93;;;0.20;99.90;;;;;;5055781;28;20483;-82
2022/12/19 00:51:29;;;;;;;251.07;236.77;;;0.30;99.90;;;;;;5055506;28;20510;-81
2022/12/19 00:53:57;;;;;;;263.70;250.40;;;0.30;99.90;;;;;;5055430;28;20462;-82
2022/12/19 00:56:27;;;;;;;274.27;260.50;;;0.20;99.90;;;;;;5055409;28;20478;-82
2022/12/19 00:58:56;;;;;;;262.90;248.70;;;0.40;99.90;;;;;;5055593;28;20478;-82
2022/12/19 01:01:25;;;;;;;248.27;234.57;;;0.30;99.90;;;;;;5055064;28;20470;-81
2022/12/19 01:03:53;;;;;;;234.60;221.77;;;0.30;99.90;;;;;;5055345;28;20944;-81
2022/12/19 01:06:20;;;;;;;231.10;218.60;;;0.30;99.90;;;;;;5055454;28;20447;-81
2022/12/19 01:08:46;;;;;;;238.80;225.93;;;0.30;99.90;;;;;;5055314;28;20448;-82
2022/12/19 01:11:13;;;;;;;227.13;214.67;;;0.40;99.90;;;;;;5055165;28;20459;-81
2022/12/19 01:13:39;;;;;;;207.20;197.10;;;0.40;99.90;;;;;;5055411;28;20944;-82
2022/12/19 01:16:11;;;;;;;240.33;226.13;;;0.50;99.90;;;;;;5055112;28;21091;-82
2022/12/19 01:18:38;;;;;;;234.97;221.93;;;0.40;99.90;;;;;;5055321;28;20842;-82
2022/12/19 01:21:07;;;;;;;241.30;228.27;;;0.40;99.90;;;;;;5055151;28;20459;-82
2022/12/19 01:23:35;;;;;;;242.27;230.37;;;0.50;99.90;;;;;;5055176;28;20831;-81
2022/12/19 01:26:01;;;;;;;236.83;223.20;;;0.50;99.90;;;;;;5055279;28;20462;-81
2022/12/19 01:28:28;;;;;;;245.93;234.10;;;0.60;99.90;;;;;;5054982;28;20542;-81
2022/12/19 01:30:56;;;;;;;258.27;245.10;;;0.60;99.90;;;;;;5054385;28;20462;-82
2022/12/19 01:33:24;;;;;;;279.97;267.03;;;0.60;99.90;;;;;;5055025;28;20471;-82
2022/12/19 01:35:51;;;;;;;288.00;272.60;;;0.60;99.90;;;;;;5054990;28;20475;-81
2022/12/19 01:38:19;;;;;;;288.13;273.87;;;0.60;99.90;;;;;;5054534;28;20838;-81
2022/12/19 01:40:51;;;;;;;281.17;267.57;;;0.60;99.90;;;;;;5054860;28;20463;-81
2022/12/19 01:43:18;;;;;;;298.47;283.90;;;0.60;99.90;;;;;;5054761;28;20991;-82
2022/12/19 01:45:46;;;;;;;278.80;264.87;;;0.70;99.90;;;;;;5054734;28;20447;-81
2022/12/19 01:48:17;;;;;;;278.73;263.38;;;0.70;99.90;;;;;;5054513;28;20451;-82
2022/12/19 01:50:52;;;;;;;265.23;252.37;;;0.70;99.90;;;;;;5054966;28;20227;-82
2022/12/19 01:53:21;;;;;;;265.07;252.50;;;0.70;99.90;;;;;;5054823;28;21013;-82
2022/12/19 01:55:48;;;;;;;261.63;247.87;;;0.70;99.90;;;;;;5054303;28;20478;-79
2022/12/19 01:58:15;;;;;;;269.10;255.47;;;0.70;99.90;;;;;;5054197;28;20459;-79
2022/12/19 02:00:43;;;;;;;275.87;262.97;;;0.80;99.90;;;;;;5054345;28;20451;-79
2022/12/19 02:03:14;;;;;;;272.50;259.30;;;0.80;99.90;;;;;;5054847;28;20467;-79
2022/12/19 02:05:41;;;;;;;263.90;250.73;;;0.90;99.90;;;;;;5054643;28;20455;-79
2022/12/19 02:08:10;;;;;;;259.47;246.57;;;0.90;99.90;;;;;;5054667;28;20451;-79
2022/12/19 02:10:37;;;;;;;259.57;246.03;;;0.90;99.90;;;;;;5053989;28;20470;-79
2022/12/19 02:13:04;;;;;;;263.07;249.73;;;0.90;99.90;;;;;;5054775;28;20828;-78
2022/12/19 02:15:36;;;;;;;245.43;233.00;;;0.80;99.90;;;;;;5055276;28;20466;-79
2022/12/19 02:18:10;;;;;;;228.80;217.30;;;0.90;99.90;;;;;;5058901;28;20522;-79
2022/12/19 02:21:05;;;;;;;212.97;201.43;;;1.00;99.90;;;;;;5057352;28;20462;-79
2022/12/19 02:23:59;;;;;;;205.80;194.23;;;1.00;99.90;;;;;;5057684;28;20470;-79
2022/12/19 02:26:54;;;;;;;198.23;187.50;;;0.90;99.90;;;;;;5058872;28;20458;-79
2022/12/19 02:29:42;;;;;;;197.47;186.13;;;1.00;99.90;;;;;;5058527;28;20451;-79
2022/12/19 02:32:18;;;;;;;198.50;187.10;;;1.00;99.90;;;;;;5058252;28;20475;-79
2022/12/19 02:34:50;;;;;;;202.57;191.00;;;1.10;99.90;;;;;;5057699;28;20455;-79
2022/12/19 02:37:21;;;;;;;203.53;192.80;;;1.10;99.90;;;;;;5058660;28;20892;-79
2022/12/19 02:39:55;;;;;;;201.00;190.33;;;1.10;99.90;;;;;;5059132;28;20451;-79
2022/12/19 02:42:27;;;;;;;201.50;191.57;;;1.10;99.90;;;;;;5058290;28;20471;-79
2022/12/19 02:44:54;;;;;;;224.53;212.67;;;1.10;99.90;;;;;;5059370;28;20447;-79
2022/12/19 02:47:23;;;;;;;243.77;231.20;;;1.00;99.90;;;;;;5059402;28;20447;-79
2022/12/19 02:49:49;;;;;;;263.43;249.80;;;1.10;99.90;;;;;;5058570;28;20834;-79
2022/12/19 02:52:44;;;;;;;273.70;259.80;;;1.10;99.90;;;;;;5058665;28;20478;-79
2022/12/19 02:55:14;;;;;;;270.70;258.60;;;1.20;99.90;;;;;;5057764;28;20451;-79
2022/12/19 02:57:53;;;;;;;282.20;268.70;;;1.20;99.90;;;;;;5058323;28;20486;-79
2022/12/19 03:00:22;;;;;;;290.10;278.23;;;1.10;99.90;;;;;;5057705;28;20478;-79
2022/12/19 03:02:58;;;;;;;308.00;294.57;;;1.20;99.90;;;;;;5058275;28;20843;-79
2022/12/19 03:05:31;;;;;;;317.70;303.57;;;1.20;99.90;;;;;;5058593;28;20462;-79
2022/12/19 03:08:06;;;;;;;356.10;339.33;;;1.20;99.90;;;;;;5058887;28;20447;-79
2022/12/19 03:10:40;;;;;;;360.77;344.90;;;1.10;99.90;;;;;;5057660;28;20469;-79
2022/12/19 03:13:11;;;;;;;363.70;348.20;;;1.20;99.90;;;;;;5058168;28;20992;-79
2022/12/19 03:15:39;;;;;;;390.07;373.33;;;1.30;99.90;;;;;;5058402;28;20455;-79
2022/12/19 03:18:08;;;;;;;385.90;368.70;;;1.20;99.90;;;;;;5058392;28;20483;-79
2022/12/19 03:20:43;;;;;;;406.77;388.87;;;1.10;99.90;;;;;;5057835;28;20462;-79
2022/12/19 03:23:11;;;;;;;404.13;386.87;;;1.30;99.90;;;;;;5058278;28;20536;-79
2022/12/19 03:25:40;;;;;;;406.87;389.77;;;1.20;99.90;;;;;;5057450;28;20466;-79
2022/12/19 03:28:11;;;;;;;396.07;379.27;;;1.20;99.90;;;;;;5057341;28;20458;-79
2022/12/19 03:30:40;;;;;;;409.63;391.83;;;1.30;99.90;;;;;;5057055;28;20468;-79
2022/12/19 03:33:11;;;;;;;408.67;390.83;;;1.30;99.90;;;;;;5057627;28;20478;-79
2022/12/19 03:35:39;;;;;;;407.30;388.93;;;1.30;99.90;;;;;;5057202;28;20460;-79
2022/12/19 03:38:07;;;;;;;418.30;400.00;;;1.30;99.90;;;;;;5057103;28;20479;-79
2022/12/19 03:40:37;;;;;;;423.33;405.57;;;1.40;99.90;;;;;;5056888;28;20451;-79
2022/12/19 03:43:08;;;;;;;467.70;445.43;;;1.30;99.90;;;;;;5057088;28;20471;-79
2022/12/19 03:45:45;;;;;;;489.23;465.87;;;1.20;99.90;;;;;;5057511;28;20456;-79
2022/12/19 03:48:19;;;;;;;544.17;517.20;;;1.20;99.90;;;;;;5057289;28;20447;-79
2022/12/19 03:50:53;;;;;;;607.87;574.40;;;1.30;99.90;;;;;;5056736;28;20451;-79
2022/12/19 03:53:29;;;;;;;626.07;588.83;;;1.30;99.90;;;;;;5057380;28;20494;-79
2022/12/19 03:56:05;;;;;;;654.53;614.87;;;1.20;99.90;;;;;;5056777;28;20477;-80
2022/12/19 03:58:35;;;;;;;677.07;631.40;;;1.30;99.90;;;;;;5057287;28;20455;-80
2022/12/19 04:01:04;;;;;;;681.80;638.13;;;1.30;99.90;;;;;;5056233;28;20527;-79
2022/12/19 04:03:33;;;;;;;688.50;641.50;;;1.30;99.90;;;;;;5056446;28;20447;-79
2022/12/19 04:06:01;;;;;;;691.93;642.73;;;1.20;99.90;;;;;;5056508;28;20452;-80
2022/12/19 04:08:31;;;;;;;712.73;660.87;;;1.30;99.90;;;;;;5055911;28;20458;-79
2022/12/19 04:11:03;;;;;;;707.53;653.93;;;1.20;99.90;;;;;;5055810;28;20466;-79
2022/12/19 04:13:35;;;;;;;709.05;654.67;;;1.20;99.90;;;;;;5057131;28;20562;-79
2022/12/19 04:16:10;;;;;;;704.80;648.60;;;1.20;99.90;;;;;;5056273;28;20203;-79
2022/12/19 04:18:40;;;;;;;703.23;648.17;;;1.30;99.90;;;;;;5055753;28;20455;-79
2022/12/19 04:21:13;;;;;;;700.50;643.40;;;1.30;99.90;;;;;;5055388;28;20458;-79
2022/12/19 04:23:45;;;;;;;695.97;638.17;;;1.30;99.90;;;;;;5055752;28;20481;-79
2022/12/19 04:26:15;;;;;;;696.37;637.87;;;1.30;99.90;;;;;;5056597;28;20456;-79
2022/12/19 04:28:46;;;;;;;712.87;654.27;;;1.30;99.90;;;;;;5056936;28;21113;-80
2022/12/19 04:31:15;;;;;;;720.53;664.73;;;1.30;99.90;;;;;;5057524;28;20462;-80
2022/12/19 04:33:43;;;;;;;725.23;668.97;;;1.30;99.90;;;;;;5056863;28;20463;-81
2022/12/19 04:36:10;;;;;;;724.00;669.50;;;1.30;99.90;;;;;;5056180;28;20815;-81
2022/12/19 04:38:37;;;;;;;720.40;667.90;;;1.30;99.90;;;;;;5057121;28;20960;-81
2022/12/19 04:41:04;;;;;;;709.60;656.63;;;1.30;99.90;;;;;;5055818;28;20452;-81
2022/12/19 04:43:31;;;;;;;708.57;655.80;;;1.30;99.90;;;;;;5057375;28;20979;-81
2022/12/19 04:45:57;;;;;;;711.60;660.77;;;1.30;99.90;;;;;;5055979;28;20459;-81
2022/12/19 04:48:24;;;;;;;705.93;655.13;;;1.30;99.90;;;;;;5056214;28;20454;-81
2022/12/19 04:50:52;;;;;;;698.37;648.33;;;1.30;99.90;;;;;;5056151;28;21002;-80
2022/12/19 04:53:19;;;;;;;702.33;648.93;;;1.40;99.90;;;;;;5055665;28;20483;-81
2022/12/19 04:55:46;;;;;;;695.70;643.87;;;1.30;99.90;;;;;;5057050;28;20455;-80
2022/12/19 04:58:13;;;;;;;696.17;645.07;;;1.40;99.90;;;;;;5056831;28;20484;-81
2022/12/19 05:00:39;;;;;;;704.50;650.93;;;1.40;99.90;;;;;;5056179;28;20455;-81
2022/12/19 05:03:06;;;;;;;712.17;658.40;;;1.40;99.90;;;;;;5056764;28;20478;-80
2022/12/19 05:05:33;;;;;;;698.87;646.80;;;1.50;99.90;;;;;;5056945;28;20960;-80
2022/12/19 05:08:01;;;;;;;707.23;653.00;;;1.50;99.90;;;;;;5056960;28;20458;-80
2022/12/19 05:10:27;;;;;;;696.03;642.03;;;1.50;99.90;;;;;;5056449;28;20459;-81
2022/12/19 05:12:54;;;;;;;700.60;646.83;;;1.50;99.90;;;;;;5057005;28;20475;-80
2022/12/19 05:15:21;;;;;;;684.30;631.60;;;1.50;99.90;;;;;;5056687;28;20525;-80
2022/12/19 05:17:48;;;;;;;691.97;636.50;;;1.60;99.90;;;;;;5056129;28;20479;-80
2022/12/19 05:20:14;;;;;;;698.87;641.50;;;1.60;99.90;;;;;;5056361;28;20451;-79
2022/12/19 05:22:41;;;;;;;691.70;637.30;;;1.70;99.90;;;;;;5056325;28;20479;-80
2022/12/19 05:25:10;;;;;;;684.97;630.87;;;1.50;99.90;;;;;;5056004;28;20460;-80
2022/12/19 05:27:36;;;;;;;694.23;640.07;;;1.60;99.90;;;;;;5056426;28;20451;-80
2022/12/19 05:30:04;;;;;;;688.03;634.77;;;1.70;99.90;;;;;;5056503;28;20451;-80
2022/12/19 05:32:32;;;;;;;683.67;628.87;;;1.80;99.90;;;;;;5056215;28;20475;-80
2022/12/19 05:34:59;;;;;;;682.17;627.57;;;1.70;99.90;;;;;;5056948;28;20509;-80
2022/12/19 05:37:25;;;;;;;678.20;623.63;;;1.70;99.90;;;;;;5057632;28;20478;-80
2022/12/19 05:39:52;;;;;;;665.50;610.67;;;1.70;99.90;;;;;;5056556;28;20455;-79
2022/12/19 05:42:20;;;;;;;667.07;612.23;;;1.70;99.90;;;;;;5054088;28;21010;-80
2022/12/19 05:44:47;;;;;;;663.50;608.90;;;1.70;99.90;;;;;;5054238;28;20451;-80
2022/12/19 05:47:14;;;;;;;653.30;601.17;;;1.70;99.90;;;;;;5054726;28;20447;-80
2022/12/19 05:49:40;;;;;;;659.00;605.60;;;1.70;99.90;;;;;;5053151;28;20459;-80
2022/12/19 05:52:07;;;;;;;654.00;601.73;;;1.70;99.90;;;;;;5055729;28;20475;-79
2022/12/19 05:54:34;;;;;;;654.90;604.80;;;1.80;99.90;;;;;;5058773;28;20479;-80
2022/12/19 05:57:00;;;;;;;655.70;603.27;;;1.80;99.90;;;;;;5057922;28;20475;-80
2022/12/19 05:59:28;;;;;;;644.27;592.27;;;1.80;99.90;;;;;;5057261;28;20463;-79
2022/12/19 06:01:55;;;;;;;654.60;601.97;;;1.80;99.90;;;;;;5058132;28;20475;-79
2022/12/19 06:04:22;;;;;;;654.83;601.37;;;1.80;99.90;;;;;;5057193;28;20451;-79
2022/12/19 06:06:48;;;;;;;649.60;597.20;;;1.90;99.90;;;;;;5058390;28;20970;-79
2022/12/19 06:09:15;;;;;;;650.93;597.83;;;1.90;99.90;;;;;;5057036;28;20459;-79
2022/12/19 06:11:42;;;;;;;656.47;600.33;;;1.80;99.90;;;;;;5057958;28;20859;-79
2022/12/19 06:14:08;;;;;;;646.80;591.60;;;2.00;99.90;;;;;;5057529;28;20455;-78
2022/12/19 06:16:36;;;;;;;643.47;587.97;;;1.90;99.90;;;;;;5058164;28;20829;-79
2022/12/19 06:19:03;;;;;;;646.40;591.60;;;2.00;99.90;;;;;;5058380;28;20482;-79
2022/12/19 06:21:30;;;;;;;638.93;582.73;;;2.00;99.90;;;;;;5058652;28;20487;-79
2022/12/19 06:23:57;;;;;;;651.17;594.77;;;2.00;99.90;;;;;;5058338;28;20459;-79
2022/12/19 06:26:24;;;;;;;640.40;583.63;;;2.00;99.90;;;;;;5058692;28;20455;-79
2022/12/19 06:28:51;;;;;;;648.40;591.20;;;2.10;99.90;;;;;;5057271;28;20455;-78
2022/12/19 06:31:19;;;;;;;646.93;590.07;;;2.10;99.90;;;;;;5056084;28;20459;-79
2022/12/19 06:34:05;;;;;;;652.23;594.23;;;2.10;99.90;;;;;;5058957;28;20455;-80
2022/12/19 06:36:45;;;;;;;639.00;581.93;;;2.20;99.90;;;;;;5060207;28;20454;-81
2022/12/19 06:39:18;;;;;;;642.57;586.23;;;2.10;99.90;;;;;;5059839;28;20447;-79
2022/12/19 06:44:31;;;;;;;644.47;587.70;;;2.30;99.90;;;;;;5059803;28;20462;-80
2022/12/19 06:46:58;;;;;;;639.00;583.50;;;2.10;99.90;;;;;;5060368;28;20463;-80
2022/12/19 06:49:26;;;;;;;639.50;584.27;;;2.20;99.90;;;;;;5060134;28;20940;-79
2022/12/19 06:51:52;;;;;;;643.67;588.20;;;2.20;99.90;;;;;;5059251;28;20477;-78
2022/12/19 06:54:19;;;;;;;634.90;581.10;;;2.20;99.90;;;;;;5059800;28;20452;-79
2022/12/19 06:56:46;;;;;;;626.60;571.80;;;2.30;99.90;;;;;;5060028;28;20996;-79
2022/12/19 06:59:16;;;;;;;625.73;571.23;;;2.20;99.90;;;;;;5060200;28;20483;-80
2022/12/19 07:01:59;;;;;;;628.10;573.40;;;2.30;99.90;;;;;;5058918;28;20475;-79
2022/12/19 07:04:57;;;;;;;616.47;561.27;;;2.30;99.90;;;;;;5059325;28;20815;-80
2022/12/19 07:07:24;;;;;;;612.97;557.60;;;2.30;99.90;;;;;;5060326;28;20443;-80
2022/12/19 07:09:51;;;;;;;619.17;564.97;;;2.40;99.90;;;;;;5060253;28;20451;-80
2022/12/19 07:12:17;;;;;;;618.47;562.87;;;2.40;99.90;;;;;;5059447;28;20478;-80
2022/12/19 07:14:44;;;;;;;612.20;556.80;;;2.40;99.90;;;;;;5059431;28;20451;-80
2022/12/19 07:17:27;;;;;;;;;;;;;;;;;;;;;
2022/12/19 07:19:57;;;;;;;618.17;563.50;;;2.50;99.90;;;;;;5058982;28;20452;-80
2022/12/19 07:22:25;;;;;;;618.23;563.10;;;2.40;99.90;;;;;;5058777;28;20483;-79
2022/12/19 07:24:52;;;;;;;624.60;568.40;;;2.50;99.90;;;;;;5047568;28;20444;-79
2022/12/19 07:27:18;;;;;;;611.20;557.03;;;2.50;99.90;;;;;;5038965;28;20458;-79
2022/12/19 07:29:45;;;;;;;619.80;564.27;;;2.60;99.90;;;;;;5038567;28;20453;-80
2022/12/19 07:32:12;;;;;;;624.43;568.27;;;2.60;99.90;;;;;;5038181;28;20984;-79
2022/12/19 07:34:38;;;;;;;620.03;564.50;;;2.70;99.90;;;;;;5038283;28;20467;-79
2022/12/19 07:37:06;;;;;;;619.07;563.73;;;2.70;99.90;;;;;;5037717;28;20455;-79
2022/12/19 07:39:33;;;;;;;613.67;559.57;;;2.70;99.90;;;;;;5037829;28;20523;-79
2022/12/19 07:42:00;;;;;;;620.50;564.17;;;2.80;99.90;;;;;;5038234;28;20472;-80
2022/12/19 07:44:26;;;;;;;624.37;568.57;;;2.70;99.90;;;;;;5038010;28;20449;-79
2022/12/19 07:46:53;;;;;;;623.93;567.93;;;2.80;99.90;;;;;;5036591;28;20949;-80
2022/12/19 07:52:13;;;;;;;633.40;575.67;;;2.90;99.90;;;;;;5037197;28;20523;-79
2022/12/19 07:54:40;;;;;;;629.50;572.07;;;2.80;99.90;;;;;;5037733;28;20455;-79
2022/12/19 07:57:06;;;;;;;635.50;577.20;;;2.80;99.90;;;;;;5037277;28;20483;-79
2022/12/19 07:59:33;;;;;;;633.27;575.87;;;2.90;99.90;;;;;;5037577;28;20479;-79
2022/12/19 08:02:00;;;;;;;634.60;576.50;;;2.90;99.90;;;;;;5036721;28;21144;-79
2022/12/19 08:04:27;;;;;;;638.20;578.80;;;3.00;99.90;;;;;;5037394;28;20457;-79
2022/12/19 08:06:53;;;;;;;625.77;567.20;;;3.00;99.90;;;;;;5037377;28;20456;-79
2022/12/19 08:09:21;;;;;;;630.03;570.93;;;3.00;99.90;;;;;;5037617;28;20460;-79
2022/12/19 08:11:48;;;;;;;624.67;565.87;;;3.00;99.90;;;;;;5036413;28;20473;-79
2022/12/19 08:14:15;;;;;;;628.47;569.70;;;3.00;99.90;;;;;;5036959;28;20896;-79
2022/12/19 08:16:42;;;;;;;627.57;569.67;;;3.20;99.90;;;;;;5036653;28;20456;-79
2022/12/19 08:19:09;;;;;;;632.33;573.57;;;3.20;99.90;;;;;;5037215;28;20914;-79
2022/12/19 08:21:36;;;;;;;629.60;571.93;;;3.20;99.90;;;;;;5036750;28;20476;-79
2022/12/19 08:24:03;;;;;;;620.27;563.67;;;3.20;99.90;;;;;;5036912;28;20456;-79
2022/12/19 08:26:33;;;;;;;623.27;565.77;;;3.30;99.90;;;;;;5037541;28;20828;-79
2022/12/19 08:29:34;;;;;;;620.00;563.40;;;3.20;99.90;;;;;;5037529;28;20448;-79
2022/12/19 08:32:20;;;;;;;623.37;565.80;;;3.20;99.90;;;;;;5005465;28;20860;-79
2022/12/19 08:47:43;;;;;;;622.07;564.00;;;3.50;99.90;;;;;;4959761;28;20541;-81
2022/12/19 08:50:10;;;;;;;627.37;570.03;;;3.50;99.90;;;;;;5008972;28;20514;-80
2022/12/19 08:52:45;;;;;;;620.57;562.57;;;3.40;99.90;;;;;;5036611;28;20563;-81
2022/12/19 09:01:58;;;;;;;623.13;566.23;;;3.60;99.90;;;;;;4915401;29;20482;-81
2022/12/19 09:04:28;;;;;;;621.73;564.97;;;3.60;99.90;;;;;;4964889;28;20859;-81
2022/12/19 09:06:54;;;;;;;625.00;567.80;;;3.70;99.90;;;;;;5031160;28;20455;-81
2022/12/19 09:09:29;;;;;;;625.97;568.27;;;3.70;99.90;;;;;;5051700;28;20439;-81
2022/12/19 09:11:56;;;;;;;632.97;575.80;;;3.80;99.90;;;;;;5057107;28;20473;-81
2022/12/19 09:14:30;;;;;;;630.67;573.27;;;3.90;99.90;;;;;;5057533;28;20857;-81
2022/12/19 09:16:59;;;;;;;629.77;572.63;;;3.90;99.90;;;;;;5056567;28;20446;-81
2022/12/19 09:19:27;;;;;;;634.83;578.87;;;3.80;99.90;;;;;;5056600;28;20518;-81
2022/12/19 09:21:54;;;;;;;635.90;579.27;;;3.90;99.90;;;;;;5056383;28;20482;-81
2022/12/19 09:24:21;;;;;;;637.17;580.87;;;4.00;99.90;;;;;;5057003;28;20455;-81
2022/12/19 09:26:47;;;;;;;637.93;581.87;;;3.90;99.90;;;;;;5055895;28;20458;-81
2022/12/19 09:29:14;;;;;;;649.73;592.63;;;3.90;99.90;;;;;;5056141;28;20459;-81
2022/12/19 09:31:41;;;;;;;639.10;584.27;;;3.90;99.90;;;;;;5055797;28;20478;-81
2022/12/19 09:34:08;;;;;;;640.23;584.70;;;4.00;99.90;;;;;;5056598;28;20458;-81
2022/12/19 09:36:36;;;;;;;640.40;584.30;;;4.10;99.90;;;;;;5056428;28;20462;-81
2022/12/19 09:39:03;;;;;;;647.63;590.97;;;4.10;99.90;;;;;;5055396;28;20458;-81
2022/12/19 09:41:41;;;;;;;642.30;589.07;;;4.00;99.90;;;;;;5056578;28;20221;-81
2022/12/19 09:44:22;;;;;;;638.97;585.10;;;4.20;99.90;;;;;;5057021;28;20455;-82
2022/12/19 09:46:51;;;;;;;634.53;582.10;;;4.20;99.90;;;;;;5056304;28;20459;-81
2022/12/19 09:49:22;;;;;;;640.97;588.00;;;4.10;99.90;;;;;;5056470;28;20958;-81
2022/12/19 09:51:57;;;;;;;645.57;592.50;;;4.10;99.90;;;;;;5056146;28;20479;-81
2022/12/19 09:54:28;;;;;;;647.50;594.27;;;4.10;99.90;;;;;;5056286;28;20451;-82
2022/12/19 09:57:02;;;;;;;637.20;584.53;;;4.20;99.90;;;;;;5055897;28;20455;-81
2022/12/19 09:59:35;;;;;;;646.97;593.27;;;4.10;99.90;;;;;;5056170;28;20486;-81
2022/12/19 10:02:19;;;;;;;639.13;584.70;;;4.10;99.90;;;;;;5055334;28;20478;-82
2022/12/19 10:04:50;;;;;;;639.43;586.50;;;4.20;99.90;;;;;;5055744;28;20828;-81
2022/12/19 10:07:20;;;;;;;650.47;597.20;;;4.20;99.90;;;;;;5056519;28;20459;-82
2022/12/19 10:09:47;;;;;;;659.47;604.87;;;4.20;99.90;;;;;;5056970;28;20514;-82
2022/12/19 10:12:26;;;;;;;655.33;601.00;;;4.20;99.90;;;;;;5055510;28;20478;-82
2022/12/19 10:15:03;;;;;;;654.37;599.10;;;4.30;99.90;;;;;;5056258;28;20451;-82
2022/12/19 10:17:43;;;;;;;651.53;596.97;;;4.30;99.90;;;;;;5056596;28;20462;-82
2022/12/19 10:20:19;;;;;;;659.43;603.73;;;4.40;99.90;;;;;;5056239;28;20479;-81
2022/12/19 10:22:59;;;;;;;659.67;603.33;;;4.40;99.90;;;;;;5056637;28;20486;-82
2022/12/19 10:25:36;;;;;;;653.07;597.73;;;4.40;99.90;;;;;;5056767;28;20459;-82
2022/12/19 10:28:16;;;;;;;646.30;592.07;;;4.60;99.90;;;;;;5057302;28;20553;-82
2022/12/19 10:30:49;;;;;;;653.37;598.63;;;4.50;99.90;;;;;;5056204;28;20463;-82
2022/12/19 10:33:21;;;;;;;649.37;595.47;;;4.60;99.90;;;;;;5056560;28;20475;-82
2022/12/19 10:35:55;;;;;;;654.50;601.33;;;4.70;99.90;;;;;;5056263;28;20968;-82
2022/12/19 10:38:30;;;;;;;644.90;593.57;;;4.60;99.90;;;;;;5058554;28;20478;-82
2022/12/19 10:41:10;;;;;;;651.07;600.80;;;4.60;99.90;;;;;;5060033;28;20461;-82
2022/12/19 10:43:46;;;;;;;650.27;599.60;;;4.60;99.90;;;;;;5059617;28;20959;-82
2022/12/19 10:46:17;;;;;;;650.10;600.60;;;4.60;99.90;;;;;;5060534;28;20451;-82
2022/12/19 10:48:44;;;;;;;644.67;595.40;;;4.70;99.90;;;;;;5060595;28;20447;-82
2022/12/19 10:51:13;;;;;;;646.33;597.23;;;4.60;99.90;;;;;;5059657;28;20456;-82
2022/12/19 10:53:41;;;;;;;635.37;587.90;;;4.60;99.90;;;;;;5059355;28;20447;-82
2022/12/19 10:56:23;;;;;;;630.70;585.20;;;4.60;99.90;;;;;;5059461;28;20460;-82
2022/12/19 10:58:56;;;;;;;632.57;587.50;;;4.60;99.90;;;;;;5060212;28;20490;-81
2022/12/19 11:05:30;;;;;;;633.70;588.17;;;4.60;99.90;;;;;;5017726;28;20459;-80
2022/12/19 11:08:24;;;;;;;641.57;594.23;;;4.50;99.90;;;;;;4921344;29;20492;-82
2022/12/19 11:10:54;;;;;;;630.57;585.70;;;4.60;99.90;;;;;;5036931;28;20837;-82
2022/12/19 11:13:41;;;;;;;627.27;584.13;;;4.60;99.90;;;;;;5059966;28;20475;-82
2022/12/19 11:16:53;;;;;;;623.50;581.77;;;4.60;99.90;;;;;;5059752;28;20455;-82
2022/12/19 11:19:21;;;;;;;630.80;587.30;;;4.60;99.90;;;;;;5059577;28;20475;-82
2022/12/19 11:21:55;;;;;;;634.10;590.70;;;4.60;99.90;;;;;;5059291;28;20510;-82
2022/12/19 11:24:25;;;;;;;626.67;585.30;;;4.70;99.90;;;;;;5059944;28;20459;-82
2022/12/19 11:26:54;;;;;;;622.27;582.27;;;4.60;99.90;;;;;;5059818;28;20454;-82
2022/12/19 11:29:42;;;;;;;611.63;571.03;;;4.80;99.90;;;;;;5060100;28;20542;-82
2022/12/19 11:33:00;;;;;;;;;;;;;;;;;;;;;
2022/12/19 11:35:27;;;;;;;590.63;553.83;;;4.70;99.90;;;;;;5046314;28;21041;-82
2022/12/19 11:37:56;;;;;;;583.70;547.23;;;4.90;99.90;;;;;;5060804;28;20452;-85
2022/12/19 11:40:38;;;;;;;570.13;534.87;;;4.90;99.90;;;;;;5058804;28;20475;-84
2022/12/19 11:43:16;;;;;;;576.03;540.10;;;4.90;99.90;;;;;;5059561;28;20494;-84
2022/12/19 11:45:51;;;;;;;560.47;526.60;;;4.90;99.90;;;;;;5058921;28;20542;-84
2022/12/19 11:48:23;;;;;;;564.30;529.73;;;5.20;99.90;;;;;;5059115;28;20462;-84
2022/12/19 11:50:59;;;;;;;550.00;517.57;;;5.10;99.90;;;;;;5058218;28;20466;-84
2022/12/19 11:53:30;;;;;;;546.43;516.17;;;5.10;99.90;;;;;;5058432;28;20486;-83
2022/12/19 11:56:01;;;;;;;556.47;524.03;;;5.10;99.90;;;;;;5058392;28;20458;-84
2022/12/19 11:58:51;;;;;;;556.57;524.33;;;5.10;99.90;;;;;;5058851;28;20940;-84
2022/12/19 12:01:30;;;;;;;561.60;528.57;;;5.10;99.90;;;;;;5058262;28;20456;-84
2022/12/19 12:04:24;;;;;;;552.90;521.57;;;5.20;99.90;;;;;;5058478;28;20455;-84
2022/12/19 12:06:53;;;;;;;526.50;498.10;;;5.40;99.90;;;;;;5037866;28;20455;-84
2022/12/19 12:09:32;;;;;;;506.77;480.53;;;5.40;99.90;;;;;;5058444;28;20444;-84
2022/12/19 12:12:11;;;;;;;487.40;463.17;;;5.40;99.90;;;;;;5058391;28;20472;-84
2022/12/19 12:14:49;;;;;;;456.90;435.20;;;5.60;99.90;;;;;;5058340;28;20487;-86
2022/12/19 12:17:37;;;;;;;435.13;414.83;;;5.50;99.90;;;;;;5058395;28;20469;-84
2022/12/19 12:20:18;;;;;;;396.57;378.23;;;5.60;99.90;;;;;;5059210;28;20479;-85
2022/12/19 12:23:04;;;;;;;387.03;370.23;;;5.70;99.90;;;;;;5059309;28;20482;-84
2022/12/19 12:25:47;;;;;;;360.87;345.07;;;5.60;99.90;;;;;;5058909;28;20455;-84
2022/12/19 12:29:01;;;;;;;360.33;343.67;;;5.60;99.90;;;;;;5057903;28;20801;-84
2022/12/19 12:31:38;;;;;;;318.57;304.23;;;5.80;99.90;;;;;;4995815;28;20470;-83
2022/12/19 12:34:24;;;;;;;282.07;269.77;;;5.80;99.90;;;;;;5047160;28;20832;-84
2022/12/19 12:37:09;;;;;;;278.33;266.23;;;5.70;99.90;;;;;;5058272;28;20453;-84
2022/12/19 12:39:46;;;;;;;283.20;270.97;;;5.90;99.90;;;;;;5061286;28;20995;-84
2022/12/19 12:42:24;;;;;;;260.07;248.23;;;5.80;99.90;;;;;;5060099;28;20471;-84
2022/12/19 12:44:57;;;;;;;212.33;202.87;;;5.90;99.90;;;;;;5059437;28;20461;-87
2022/12/19 12:47:26;;;;;;;207.77;197.33;;;6.00;99.90;;;;;;5057883;28;20455;-84
2022/12/19 12:50:06;;;;;;;;;;;;;;;;;;;;;
2022/12/19 12:52:35;;;;;;;160.60;152.47;;;6.00;99.90;;;;;;5056113;28;20479;-85
2022/12/19 12:58:33;;;;;;;161.63;153.17;;;6.00;99.90;;;;;;5055394;28;20447;-83
2022/12/19 13:01:09;;;;;;;190.10;181.37;;;5.90;99.90;;;;;;5056673;28;20467;-83
2022/12/19 13:03:40;;;;;;;190.83;182.07;;;5.70;99.90;;;;;;5057809;28;20463;-83
2022/12/19 13:06:40;;;;;;;189.13;179.53;;;5.70;99.90;;;;;;5058633;28;20456;-82
2022/12/19 13:09:40;;;;;;;187.17;177.77;;;5.60;99.90;;;;;;5057195;28;20455;-80
2022/12/19 13:15:40;;;;;;;201.27;191.57;;;5.60;99.90;;;;;;5056776;28;20434;-82
2022/12/19 13:18:38;;;;;;;229.27;219.10;;;5.60;99.90;;;;;;5057587;28;20455;-82
2022/12/19 13:21:09;;;;;;;229.30;219.10;;;5.50;99.90;;;;;;5056464;28;20479;-83